sensor_id;sensor_type;location;lat;lon;timestamp;pressure;altitude;pressure_sealevel;temperature
66372;BMP180;53168;51.146;17.120;2023-07-08T00:00:46;100824.40;;;15.60
66372;BMP180;53168;51.146;17.120;2023-07-08T00:03:41;100820.80;;;15.60
66372;BMP180;53168;51.146;17.120;2023-07-08T00:06:22;100817.20;;;15.60
66372;BMP180;53168;51.146;17.120;2023-07-08T00:08:56;100814.60;;;15.50
66372;BMP180;53168;51.146;17.120;2023-07-08T00:11:31;100812.00;;;15.40
66372;BMP180;53168;51.146;17.120;2023-07-08T00:14:05;100812.80;;;15.30
66372;BMP180;53168;51.146;17.120;2023-07-08T00:16:39;100815.00;;;15.30
66372;BMP180;53168;51.146;17.120;2023-07-08T00:19:13;100809.20;;;15.24
66372;BMP180;53168;51.146;17.120;2023-07-08T00:21:52;100812.40;;;15.20
66372;BMP180;53168;51.146;17.120;2023-07-08T00:24:26;100816.80;;;15.20
66372;BMP180;53168;51.146;17.120;2023-07-08T00:27:01;100814.80;;;15.20
66372;BMP180;53168;51.146;17.120;2023-07-08T00:29:40;100814.60;;;15.20
66372;BMP180;53168;51.146;17.120;2023-07-08T00:32:17;100815.60;;;15.20
66372;BMP180;53168;51.146;17.120;2023-07-08T00:34:50;100811.80;;;15.26
66372;BMP180;53168;51.146;17.120;2023-07-08T00:37:24;100813.00;;;15.28
66372;BMP180;53168;51.146;17.120;2023-07-08T00:40:04;100813.40;;;15.30
66372;BMP180;53168;51.146;17.120;2023-07-08T00:42:47;100811.00;;;15.20
66372;BMP180;53168;51.146;17.120;2023-07-08T00:45:41;100811.60;;;15.10
66372;BMP180;53168;51.146;17.120;2023-07-08T00:48:37;100804.40;;;15.00
66372;BMP180;53168;51.146;17.120;2023-07-08T00:51:13;100799.80;;;15.00
66372;BMP180;53168;51.146;17.120;2023-07-08T00:53:48;100800.20;;;14.90
66372;BMP180;53168;51.146;17.120;2023-07-08T00:56:28;100799.00;;;14.82
66372;BMP180;53168;51.146;17.120;2023-07-08T00:59:06;100799.00;;;14.80
66372;BMP180;53168;51.146;17.120;2023-07-08T01:01:45;100800.60;;;14.74
66372;BMP180;53168;51.146;17.120;2023-07-08T01:04:24;100799.60;;;14.70
66372;BMP180;53168;51.146;17.120;2023-07-08T01:07:02;100797.80;;;14.70
66372;BMP180;53168;51.146;17.120;2023-07-08T01:09:48;100800.60;;;14.66
66372;BMP180;53168;51.146;17.120;2023-07-08T01:12:29;100795.80;;;14.70
66372;BMP180;53168;51.146;17.120;2023-07-08T01:15:08;100798.40;;;14.70
66372;BMP180;53168;51.146;17.120;2023-07-08T01:17:48;100799.20;;;14.70
66372;BMP180;53168;51.146;17.120;2023-07-08T01:20:26;100799.20;;;14.70
66372;BMP180;53168;51.146;17.120;2023-07-08T01:23:00;100798.60;;;14.66
66372;BMP180;53168;51.146;17.120;2023-07-08T01:25:35;100793.00;;;14.66
66372;BMP180;53168;51.146;17.120;2023-07-08T01:28:08;100789.40;;;14.60
66372;BMP180;53168;51.146;17.120;2023-07-08T01:30:44;100788.00;;;14.60
66372;BMP180;53168;51.146;17.120;2023-07-08T01:33:22;100788.80;;;14.50
66372;BMP180;53168;51.146;17.120;2023-07-08T01:35:57;100789.60;;;14.50
66372;BMP180;53168;51.146;17.120;2023-07-08T01:38:33;100788.80;;;14.50
66372;BMP180;53168;51.146;17.120;2023-07-08T01:41:16;100783.40;;;14.50
66372;BMP180;53168;51.146;17.120;2023-07-08T01:43:49;100786.60;;;14.50
66372;BMP180;53168;51.146;17.120;2023-07-08T01:46:28;100786.20;;;14.44
66372;BMP180;53168;51.146;17.120;2023-07-08T01:49:04;100782.20;;;14.46
66372;BMP180;53168;51.146;17.120;2023-07-08T01:51:40;100778.00;;;14.50
66372;BMP180;53168;51.146;17.120;2023-07-08T01:54:15;100780.00;;;14.54
66372;BMP180;53168;51.146;17.120;2023-07-08T01:56:48;100785.20;;;14.60
66372;BMP180;53168;51.146;17.120;2023-07-08T01:59:27;100778.40;;;14.68
66372;BMP180;53168;51.146;17.120;2023-07-08T02:02:01;100777.00;;;14.70
66372;BMP180;53168;51.146;17.120;2023-07-08T02:04:36;100781.40;;;14.70
66372;BMP180;53168;51.146;17.120;2023-07-08T02:07:09;100780.20;;;14.72
66372;BMP180;53168;51.146;17.120;2023-07-08T02:09:43;100777.20;;;14.80
66372;BMP180;53168;51.146;17.120;2023-07-08T02:12:17;100776.00;;;14.76
66372;BMP180;53168;51.146;17.120;2023-07-08T02:14:51;100778.00;;;14.76
66372;BMP180;53168;51.146;17.120;2023-07-08T02:17:24;100778.60;;;14.70
66372;BMP180;53168;51.146;17.120;2023-07-08T02:20:01;100776.00;;;14.70
66372;BMP180;53168;51.146;17.120;2023-07-08T02:22:36;100777.80;;;14.70
66372;BMP180;53168;51.146;17.120;2023-07-08T02:25:10;100778.80;;;14.62
66372;BMP180;53168;51.146;17.120;2023-07-08T02:27:48;100774.80;;;14.60
66372;BMP180;53168;51.146;17.120;2023-07-08T02:30:22;100780.60;;;14.58
66372;BMP180;53168;51.146;17.120;2023-07-08T02:32:57;100776.80;;;14.58
66372;BMP180;53168;51.146;17.120;2023-07-08T02:35:32;100782.00;;;14.60
66372;BMP180;53168;51.146;17.120;2023-07-08T02:38:06;100779.00;;;14.60
66372;BMP180;53168;51.146;17.120;2023-07-08T02:40:39;100775.60;;;14.60
66372;BMP180;53168;51.146;17.120;2023-07-08T02:43:13;100782.40;;;14.60
66372;BMP180;53168;51.146;17.120;2023-07-08T02:48:54;100781.80;;;14.70
66372;BMP180;53168;51.146;17.120;2023-07-08T02:51:28;100779.00;;;14.70
66372;BMP180;53168;51.146;17.120;2023-07-08T02:54:02;100777.20;;;14.70
66372;BMP180;53168;51.146;17.120;2023-07-08T02:56:35;100773.60;;;14.70
66372;BMP180;53168;51.146;17.120;2023-07-08T02:59:09;100773.40;;;14.70
66372;BMP180;53168;51.146;17.120;2023-07-08T03:01:42;100774.40;;;14.68
66372;BMP180;53168;51.146;17.120;2023-07-08T03:04:20;100774.20;;;14.64
66372;BMP180;53168;51.146;17.120;2023-07-08T03:06:54;100773.80;;;14.60
66372;BMP180;53168;51.146;17.120;2023-07-08T03:09:29;100772.60;;;14.60
66372;BMP180;53168;51.146;17.120;2023-07-08T03:12:06;100771.80;;;14.60
66372;BMP180;53168;51.146;17.120;2023-07-08T03:14:40;100771.20;;;14.64
66372;BMP180;53168;51.146;17.120;2023-07-08T03:17:15;100776.60;;;14.70
66372;BMP180;53168;51.146;17.120;2023-07-08T03:19:51;100776.60;;;14.70
66372;BMP180;53168;51.146;17.120;2023-07-08T03:22:25;100775.80;;;14.60
66372;BMP180;53168;51.146;17.120;2023-07-08T03:24:59;100777.20;;;14.60
66372;BMP180;53168;51.146;17.120;2023-07-08T03:27:32;100782.20;;;14.60
66372;BMP180;53168;51.146;17.120;2023-07-08T03:30:09;100780.40;;;14.60
66372;BMP180;53168;51.146;17.120;2023-07-08T03:32:43;100781.60;;;14.60
66372;BMP180;53168;51.146;17.120;2023-07-08T03:35:17;100783.20;;;14.60
66372;BMP180;53168;51.146;17.120;2023-07-08T03:37:55;100783.80;;;14.58
66372;BMP180;53168;51.146;17.120;2023-07-08T03:40:29;100783.60;;;14.60
66372;BMP180;53168;51.146;17.120;2023-07-08T03:43:03;100779.80;;;14.60
66372;BMP180;53168;51.146;17.120;2023-07-08T03:45:37;100778.80;;;14.66
66372;BMP180;53168;51.146;17.120;2023-07-08T03:48:13;100777.60;;;14.66
66372;BMP180;53168;51.146;17.120;2023-07-08T03:50:47;100785.20;;;14.70
66372;BMP180;53168;51.146;17.120;2023-07-08T03:53:23;100776.80;;;14.80
66372;BMP180;53168;51.146;17.120;2023-07-08T03:55:57;100780.40;;;14.90
66372;BMP180;53168;51.146;17.120;2023-07-08T03:58:32;100780.00;;;15.00
66372;BMP180;53168;51.146;17.120;2023-07-08T04:01:08;100774.60;;;15.10
66372;BMP180;53168;51.146;17.120;2023-07-08T04:03:45;100771.60;;;15.20
66372;BMP180;53168;51.146;17.120;2023-07-08T04:06:19;100775.20;;;15.30
66372;BMP180;53168;51.146;17.120;2023-07-08T04:08:54;100774.00;;;15.40
66372;BMP180;53168;51.146;17.120;2023-07-08T04:11:27;100776.40;;;15.50
66372;BMP180;53168;51.146;17.120;2023-07-08T04:14:01;100775.80;;;15.60
66372;BMP180;53168;51.146;17.120;2023-07-08T04:16:49;100778.60;;;15.60
66372;BMP180;53168;51.146;17.120;2023-07-08T04:19:24;100782.60;;;15.70
66372;BMP180;53168;51.146;17.120;2023-07-08T04:22:00;100777.40;;;15.80
66372;BMP180;53168;51.146;17.120;2023-07-08T04:24:41;100778.00;;;15.90
66372;BMP180;53168;51.146;17.120;2023-07-08T04:27:18;100774.20;;;15.90
66372;BMP180;53168;51.146;17.120;2023-07-08T04:29:51;100774.80;;;16.00
66372;BMP180;53168;51.146;17.120;2023-07-08T04:32:27;100772.80;;;16.00
66372;BMP180;53168;51.146;17.120;2023-07-08T04:35:04;100775.00;;;16.10
66372;BMP180;53168;51.146;17.120;2023-07-08T04:37:38;100771.00;;;16.30
66372;BMP180;53168;51.146;17.120;2023-07-08T04:40:20;100765.80;;;16.34
66372;BMP180;53168;51.146;17.120;2023-07-08T04:42:54;100767.80;;;16.40
66372;BMP180;53168;51.146;17.120;2023-07-08T04:45:27;100768.40;;;16.40
66372;BMP180;53168;51.146;17.120;2023-07-08T04:48:02;100767.80;;;16.50
66372;BMP180;53168;51.146;17.120;2023-07-08T04:53:30;100764.60;;;16.72
66372;BMP180;53168;51.146;17.120;2023-07-08T04:56:04;100768.40;;;16.88
66372;BMP180;53168;51.146;17.120;2023-07-08T04:58:37;100767.00;;;16.90
66372;BMP180;53168;51.146;17.120;2023-07-08T05:01:11;100765.80;;;17.00
66372;BMP180;53168;51.146;17.120;2023-07-08T05:03:45;100765.80;;;17.10
66372;BMP180;53168;51.146;17.120;2023-07-08T05:06:18;100763.40;;;17.20
66372;BMP180;53168;51.146;17.120;2023-07-08T05:08:52;100762.60;;;17.40
66372;BMP180;53168;51.146;17.120;2023-07-08T05:11:27;100759.00;;;17.50
66372;BMP180;53168;51.146;17.120;2023-07-08T05:14:05;100758.20;;;17.68
66372;BMP180;53168;51.146;17.120;2023-07-08T05:16:39;100763.60;;;17.80
66372;BMP180;53168;51.146;17.120;2023-07-08T05:19:32;100762.60;;;17.90
66372;BMP180;53168;51.146;17.120;2023-07-08T05:22:09;100767.60;;;18.00
66372;BMP180;53168;51.146;17.120;2023-07-08T05:24:43;100769.20;;;18.10
66372;BMP180;53168;51.146;17.120;2023-07-08T05:27:19;100770.60;;;18.20
66372;BMP180;53168;51.146;17.120;2023-07-08T05:29:53;100777.00;;;18.30
66372;BMP180;53168;51.146;17.120;2023-07-08T05:32:26;100768.20;;;18.40
66372;BMP180;53168;51.146;17.120;2023-07-08T05:35:00;100766.00;;;18.52
66372;BMP180;53168;51.146;17.120;2023-07-08T05:37:34;100765.00;;;18.70
66372;BMP180;53168;51.146;17.120;2023-07-08T05:40:11;100761.80;;;18.80
66372;BMP180;53168;51.146;17.120;2023-07-08T05:42:45;100760.80;;;18.90
66372;BMP180;53168;51.146;17.120;2023-07-08T05:45:18;100760.80;;;19.00
66372;BMP180;53168;51.146;17.120;2023-07-08T05:47:55;100761.40;;;19.04
66372;BMP180;53168;51.146;17.120;2023-07-08T05:50:32;100761.40;;;19.20
66372;BMP180;53168;51.146;17.120;2023-07-08T05:53:08;100761.80;;;19.30
66372;BMP180;53168;51.146;17.120;2023-07-08T05:55:47;100765.00;;;19.30
66372;BMP180;53168;51.146;17.120;2023-07-08T05:58:21;100766.80;;;19.44
66372;BMP180;53168;51.146;17.120;2023-07-08T06:01:03;100766.20;;;19.54
66372;BMP180;53168;51.146;17.120;2023-07-08T06:03:40;100770.60;;;19.70
66372;BMP180;53168;51.146;17.120;2023-07-08T06:06:18;100771.00;;;19.82
66372;BMP180;53168;51.146;17.120;2023-07-08T06:09:00;100775.00;;;20.00
66372;BMP180;53168;51.146;17.120;2023-07-08T06:11:34;100772.80;;;20.16
66372;BMP180;53168;51.146;17.120;2023-07-08T06:14:09;100770.40;;;20.30
66372;BMP180;53168;51.146;17.120;2023-07-08T06:16:43;100764.20;;;20.40
66372;BMP180;53168;51.146;17.120;2023-07-08T06:19:18;100762.00;;;20.60
66372;BMP180;53168;51.146;17.120;2023-07-08T06:21:52;100763.00;;;20.80
66372;BMP180;53168;51.146;17.120;2023-07-08T06:24:26;100763.40;;;20.96
66372;BMP180;53168;51.146;17.120;2023-07-08T06:26:59;100761.40;;;21.10
66372;BMP180;53168;51.146;17.120;2023-07-08T06:29:35;100764.40;;;21.24
66372;BMP180;53168;51.146;17.120;2023-07-08T06:32:11;100762.40;;;21.40
66372;BMP180;53168;51.146;17.120;2023-07-08T06:34:46;100763.20;;;21.60
66372;BMP180;53168;51.146;17.120;2023-07-08T06:37:23;100765.40;;;21.70
66372;BMP180;53168;51.146;17.120;2023-07-08T06:39:58;100764.00;;;21.80
66372;BMP180;53168;51.146;17.120;2023-07-08T06:42:40;100759.20;;;21.82
66372;BMP180;53168;51.146;17.120;2023-07-08T06:45:22;100760.60;;;21.90
66372;BMP180;53168;51.146;17.120;2023-07-08T06:47:59;100763.40;;;22.02
66372;BMP180;53168;51.146;17.120;2023-07-08T06:50:49;100766.60;;;22.20
66372;BMP180;53168;51.146;17.120;2023-07-08T06:53:25;100769.60;;;22.30
66372;BMP180;53168;51.146;17.120;2023-07-08T06:55:59;100763.40;;;22.50
66372;BMP180;53168;51.146;17.120;2023-07-08T06:58:38;100761.20;;;22.70
66372;BMP180;53168;51.146;17.120;2023-07-08T07:01:11;100764.60;;;22.82
66372;BMP180;53168;51.146;17.120;2023-07-08T07:03:46;100768.00;;;22.96
66372;BMP180;53168;51.146;17.120;2023-07-08T07:06:25;100768.00;;;23.10
66372;BMP180;53168;51.146;17.120;2023-07-08T07:08:59;100771.40;;;23.20
66372;BMP180;53168;51.146;17.120;2023-07-08T07:11:33;100770.80;;;23.40
66372;BMP180;53168;51.146;17.120;2023-07-08T07:14:06;100772.60;;;23.50
66372;BMP180;53168;51.146;17.120;2023-07-08T07:16:44;100767.40;;;23.70
66372;BMP180;53168;51.146;17.120;2023-07-08T07:19:38;100770.60;;;23.80
66372;BMP180;53168;51.146;17.120;2023-07-08T07:22:12;100775.60;;;23.90
66372;BMP180;53168;51.146;17.120;2023-07-08T07:24:46;100776.20;;;24.08
66372;BMP180;53168;51.146;17.120;2023-07-08T07:27:22;100778.80;;;24.20
66372;BMP180;53168;51.146;17.120;2023-07-08T07:29:57;100777.80;;;24.30
66372;BMP180;53168;51.146;17.120;2023-07-08T07:32:33;100781.00;;;24.50
66372;BMP180;53168;51.146;17.120;2023-07-08T07:35:10;100776.00;;;24.60
66372;BMP180;53168;51.146;17.120;2023-07-08T07:37:46;100779.60;;;24.70
66372;BMP180;53168;51.146;17.120;2023-07-08T07:40:22;100780.20;;;24.84
66372;BMP180;53168;51.146;17.120;2023-07-08T07:43:03;100776.40;;;25.00
66372;BMP180;53168;51.146;17.120;2023-07-08T07:45:38;100779.20;;;25.10
66372;BMP180;53168;51.146;17.120;2023-07-08T07:48:13;100781.20;;;25.30
66372;BMP180;53168;51.146;17.120;2023-07-08T07:50:49;100779.40;;;25.48
66372;BMP180;53168;51.146;17.120;2023-07-08T07:53:26;100781.80;;;25.60
66372;BMP180;53168;51.146;17.120;2023-07-08T07:56:02;100779.80;;;25.74
66372;BMP180;53168;51.146;17.120;2023-07-08T07:58:36;100778.80;;;25.90
66372;BMP180;53168;51.146;17.120;2023-07-08T08:01:10;100778.00;;;26.00
66372;BMP180;53168;51.146;17.120;2023-07-08T08:03:45;100778.20;;;26.20
66372;BMP180;53168;51.146;17.120;2023-07-08T08:06:22;100782.00;;;26.30
66372;BMP180;53168;51.146;17.120;2023-07-08T08:09:04;100774.00;;;26.40
66372;BMP180;53168;51.146;17.120;2023-07-08T08:15:11;100773.80;;;26.60
66372;BMP180;53168;51.146;17.120;2023-07-08T08:18:55;100777.20;;;26.70
66372;BMP180;53168;51.146;17.120;2023-07-08T08:22:02;100776.80;;;26.90
66372;BMP180;53168;51.146;17.120;2023-07-08T08:24:43;100775.20;;;27.00
66372;BMP180;53168;51.146;17.120;2023-07-08T08:27:22;100771.00;;;27.16
66372;BMP180;53168;51.146;17.120;2023-07-08T08:30:17;100769.20;;;27.28
66372;BMP180;53168;51.146;17.120;2023-07-08T08:32:52;100772.00;;;27.40
66372;BMP180;53168;51.146;17.120;2023-07-08T08:36:02;100772.20;;;27.50
66372;BMP180;53168;51.146;17.120;2023-07-08T08:38:50;100772.40;;;27.60
66372;BMP180;53168;51.146;17.120;2023-07-08T08:41:54;100774.40;;;27.70
66372;BMP180;53168;51.146;17.120;2023-07-08T08:44:43;100772.20;;;27.80
66372;BMP180;53168;51.146;17.120;2023-07-08T08:47:37;100775.00;;;27.90
66372;BMP180;53168;51.146;17.120;2023-07-08T08:50:39;100773.80;;;27.90
66372;BMP180;53168;51.146;17.120;2023-07-08T08:53:36;100776.80;;;28.10
66372;BMP180;53168;51.146;17.120;2023-07-08T08:56:39;100774.40;;;28.20
66372;BMP180;53168;51.146;17.120;2023-07-08T08:59:35;100767.00;;;28.30
66372;BMP180;53168;51.146;17.120;2023-07-08T09:02:30;100761.60;;;28.48
66372;BMP180;53168;51.146;17.120;2023-07-08T09:05:11;100760.00;;;28.60
66372;BMP180;53168;51.146;17.120;2023-07-08T09:08:02;100760.60;;;28.70
66372;BMP180;53168;51.146;17.120;2023-07-08T09:10:49;100759.20;;;28.70
66372;BMP180;53168;51.146;17.120;2023-07-08T09:13:46;100757.80;;;28.70
66372;BMP180;53168;51.146;17.120;2023-07-08T09:16:40;100758.20;;;28.80
66372;BMP180;53168;51.146;17.120;2023-07-08T09:19:28;100760.40;;;28.90
66372;BMP180;53168;51.146;17.120;2023-07-08T09:22:12;100759.80;;;29.00
66372;BMP180;53168;51.146;17.120;2023-07-08T09:24:56;100758.60;;;29.00
66372;BMP180;53168;51.146;17.120;2023-07-08T09:27:47;100755.60;;;29.10
66372;BMP180;53168;51.146;17.120;2023-07-08T09:30:26;100757.20;;;29.20
66372;BMP180;53168;51.146;17.120;2023-07-08T09:33:15;100754.60;;;29.30
66372;BMP180;53168;51.146;17.120;2023-07-08T09:36:21;100755.00;;;29.46
66372;BMP180;53168;51.146;17.120;2023-07-08T09:39:05;100753.60;;;29.70
66372;BMP180;53168;51.146;17.120;2023-07-08T09:42:08;100750.00;;;29.70
66372;BMP180;53168;51.146;17.120;2023-07-08T09:45:22;100746.60;;;29.80
66372;BMP180;53168;51.146;17.120;2023-07-08T09:48:43;100742.60;;;29.90
66372;BMP180;53168;51.146;17.120;2023-07-08T09:51:19;100737.40;;;29.90
66372;BMP180;53168;51.146;17.120;2023-07-08T09:53:54;100730.80;;;29.92
66372;BMP180;53168;51.146;17.120;2023-07-08T09:57:00;100730.80;;;29.90
66372;BMP180;53168;51.146;17.120;2023-07-08T10:03:09;100732.20;;;30.00
66372;BMP180;53168;51.146;17.120;2023-07-08T10:05:49;100729.20;;;30.04
66372;BMP180;53168;51.146;17.120;2023-07-08T10:08:47;100725.40;;;30.10
66372;BMP180;53168;51.146;17.120;2023-07-08T10:11:32;100728.00;;;30.20
66372;BMP180;53168;51.146;17.120;2023-07-08T10:14:34;100733.60;;;30.30
66372;BMP180;53168;51.146;17.120;2023-07-08T10:17:24;100736.60;;;30.30
66372;BMP180;53168;51.146;17.120;2023-07-08T10:20:02;100731.60;;;30.34
66372;BMP180;53168;51.146;17.120;2023-07-08T10:22:53;100734.00;;;30.40
66372;BMP180;53168;51.146;17.120;2023-07-08T10:25:40;100733.60;;;30.32
66372;BMP180;53168;51.146;17.120;2023-07-08T10:28:38;100728.60;;;30.20
66372;BMP180;53168;51.146;17.120;2023-07-08T10:31:30;100723.60;;;30.10
66372;BMP180;53168;51.146;17.120;2023-07-08T10:34:28;100728.00;;;30.10
66372;BMP180;53168;51.146;17.120;2023-07-08T10:37:28;100723.00;;;30.10
66372;BMP180;53168;51.146;17.120;2023-07-08T10:40:26;100717.80;;;30.10
66372;BMP180;53168;51.146;17.120;2023-07-08T10:43:30;100717.60;;;30.22
66372;BMP180;53168;51.146;17.120;2023-07-08T10:46:26;100718.00;;;30.40
66372;BMP180;53168;51.146;17.120;2023-07-08T10:49:25;100717.20;;;30.50
66372;BMP180;53168;51.146;17.120;2023-07-08T10:52:24;100714.60;;;30.60
66372;BMP180;53168;51.146;17.120;2023-07-08T10:55:26;100719.00;;;30.70
66372;BMP180;53168;51.146;17.120;2023-07-08T10:58:39;100716.20;;;30.76
66372;BMP180;53168;51.146;17.120;2023-07-08T11:01:37;100723.60;;;30.80
66372;BMP180;53168;51.146;17.120;2023-07-08T11:04:45;100720.20;;;30.84
66372;BMP180;53168;51.146;17.120;2023-07-08T11:07:39;100711.20;;;31.00
66372;BMP180;53168;51.146;17.120;2023-07-08T11:10:22;100704.60;;;31.00
66372;BMP180;53168;51.146;17.120;2023-07-08T11:13:12;100701.20;;;31.10
66372;BMP180;53168;51.146;17.120;2023-07-08T11:15:54;100701.60;;;31.10
66372;BMP180;53168;51.146;17.120;2023-07-08T11:18:42;100697.40;;;31.10
66372;BMP180;53168;51.146;17.120;2023-07-08T11:21:27;100694.60;;;31.10
66372;BMP180;53168;51.146;17.120;2023-07-08T11:24:13;100698.80;;;31.10
66372;BMP180;53168;51.146;17.120;2023-07-08T11:26:55;100694.60;;;31.20
66372;BMP180;53168;51.146;17.120;2023-07-08T11:29:42;100627.40;;;33.08
66372;BMP180;53168;51.146;17.120;2023-07-08T11:32:26;100621.80;;;34.94
66372;BMP180;53168;51.146;17.120;2023-07-08T11:35:12;100620.00;;;35.80
66372;BMP180;53168;51.146;17.120;2023-07-08T11:37:48;100621.40;;;36.18
66372;BMP180;53168;51.146;17.120;2023-07-08T11:40:24;100620.00;;;36.56
66372;BMP180;53168;51.146;17.120;2023-07-08T11:43:12;100615.40;;;37.10
66372;BMP180;53168;51.146;17.120;2023-07-08T11:45:48;100614.60;;;37.64
66372;BMP180;53168;51.146;17.120;2023-07-08T11:48:30;100609.00;;;38.02
66372;BMP180;53168;51.146;17.120;2023-07-08T11:51:10;100598.60;;;38.44
66372;BMP180;53168;51.146;17.120;2023-07-08T11:54:09;100586.60;;;38.80
66372;BMP180;53168;51.146;17.120;2023-07-08T11:57:18;100574.80;;;39.10
66372;BMP180;53168;51.146;17.120;2023-07-08T12:00:23;100568.80;;;39.44
66372;BMP180;53168;51.146;17.120;2023-07-08T12:07:14;100573.40;;;39.60
66372;BMP180;53168;51.146;17.120;2023-07-08T12:09:59;100591.00;;;39.50
66372;BMP180;53168;51.146;17.120;2023-07-08T12:12:50;100601.20;;;39.78
66372;BMP180;53168;51.146;17.120;2023-07-08T12:15:30;100620.80;;;39.90
66372;BMP180;53168;51.146;17.120;2023-07-08T12:18:16;100623.80;;;39.90
66372;BMP180;53168;51.146;17.120;2023-07-08T12:20:58;100632.20;;;40.10
66372;BMP180;53168;51.146;17.120;2023-07-08T12:23:34;100637.20;;;40.22
66372;BMP180;53168;51.146;17.120;2023-07-08T12:26:11;100641.20;;;40.10
66372;BMP180;53168;51.146;17.120;2023-07-08T12:28:46;100645.40;;;39.72
66372;BMP180;53168;51.146;17.120;2023-07-08T12:31:28;100650.80;;;39.90
66372;BMP180;53168;51.146;17.120;2023-07-08T12:34:11;100650.00;;;40.00
66372;BMP180;53168;51.146;17.120;2023-07-08T12:36:48;100647.60;;;40.10
66372;BMP180;53168;51.146;17.120;2023-07-08T12:39:24;100650.60;;;39.80
66372;BMP180;53168;51.146;17.120;2023-07-08T12:41:59;100651.60;;;39.66
66372;BMP180;53168;51.146;17.120;2023-07-08T12:44:34;100649.20;;;39.58
66372;BMP180;53168;51.146;17.120;2023-07-08T12:47:11;100645.80;;;39.60
66372;BMP180;53168;51.146;17.120;2023-07-08T12:49:48;100642.00;;;39.70
66372;BMP180;53168;51.146;17.120;2023-07-08T12:52:24;100645.60;;;39.60
66372;BMP180;53168;51.146;17.120;2023-07-08T12:54:58;100646.20;;;39.60
66372;BMP180;53168;51.146;17.120;2023-07-08T12:57:35;100642.00;;;39.70
66372;BMP180;53168;51.146;17.120;2023-07-08T13:00:18;100646.00;;;39.84
66372;BMP180;53168;51.146;17.120;2023-07-08T13:03:10;100640.00;;;40.00
66372;BMP180;53168;51.146;17.120;2023-07-08T13:05:57;100639.00;;;40.20
66372;BMP180;53168;51.146;17.120;2023-07-08T13:08:40;100638.20;;;40.60
66372;BMP180;53168;51.146;17.120;2023-07-08T13:11:45;100629.80;;;40.90
66372;BMP180;53168;51.146;17.120;2023-07-08T13:14:39;100628.00;;;40.90
66372;BMP180;53168;51.146;17.120;2023-07-08T13:17:22;100631.60;;;40.80
66372;BMP180;53168;51.146;17.120;2023-07-08T13:19:58;100628.20;;;40.90
66372;BMP180;53168;51.146;17.120;2023-07-08T13:22:33;100627.60;;;41.04
66372;BMP180;53168;51.146;17.120;2023-07-08T13:25:17;100629.20;;;41.10
66372;BMP180;53168;51.146;17.120;2023-07-08T13:28:17;100623.60;;;41.38
66372;BMP180;53168;51.146;17.120;2023-07-08T13:30:56;100627.40;;;41.70
66372;BMP180;53168;51.146;17.120;2023-07-08T13:33:37;100622.40;;;41.44
66372;BMP180;53168;51.146;17.120;2023-07-08T13:36:19;100622.20;;;41.50
66372;BMP180;53168;51.146;17.120;2023-07-08T13:38:55;100613.80;;;41.30
66372;BMP180;53168;51.146;17.120;2023-07-08T13:41:47;100614.60;;;41.10
66372;BMP180;53168;51.146;17.120;2023-07-08T13:44:22;100603.80;;;41.00
66372;BMP180;53168;51.146;17.120;2023-07-08T13:47:03;100609.80;;;41.40
66372;BMP180;53168;51.146;17.120;2023-07-08T13:49:51;100605.60;;;41.70
66372;BMP180;53168;51.146;17.120;2023-07-08T13:52:28;100599.40;;;41.98
66372;BMP180;53168;51.146;17.120;2023-07-08T13:55:15;100599.40;;;42.24
66372;BMP180;53168;51.146;17.120;2023-07-08T13:58:02;100592.40;;;42.30
66372;BMP180;53168;51.146;17.120;2023-07-08T14:00:43;100590.40;;;42.48
66372;BMP180;53168;51.146;17.120;2023-07-08T14:03:21;100589.60;;;42.70
66372;BMP180;53168;51.146;17.120;2023-07-08T14:05:55;100589.60;;;42.76
66372;BMP180;53168;51.146;17.120;2023-07-08T14:08:29;100591.40;;;42.80
66372;BMP180;53168;51.146;17.120;2023-07-08T14:11:03;100589.60;;;42.80
66372;BMP180;53168;51.146;17.120;2023-07-08T14:13:39;100589.80;;;42.90
66372;BMP180;53168;51.146;17.120;2023-07-08T14:16:28;100589.00;;;43.00
66372;BMP180;53168;51.146;17.120;2023-07-08T14:19:13;100580.20;;;42.72
66372;BMP180;53168;51.146;17.120;2023-07-08T14:21:53;100582.00;;;43.10
66372;BMP180;53168;51.146;17.120;2023-07-08T14:24:28;100586.60;;;43.00
66372;BMP180;53168;51.146;17.120;2023-07-08T14:27:02;100580.60;;;42.72
66372;BMP180;53168;51.146;17.120;2023-07-08T14:34:08;100577.60;;;42.60
66372;BMP180;53168;51.146;17.120;2023-07-08T14:36:49;100578.40;;;42.40
66372;BMP180;53168;51.146;17.120;2023-07-08T14:39:24;100583.20;;;42.14
66372;BMP180;53168;51.146;17.120;2023-07-08T14:41:59;100587.60;;;41.80
66372;BMP180;53168;51.146;17.120;2023-07-08T14:44:41;100574.20;;;41.40
66372;BMP180;53168;51.146;17.120;2023-07-08T14:47:19;100573.80;;;41.70
66372;BMP180;53168;51.146;17.120;2023-07-08T14:49:54;100566.60;;;42.16
66372;BMP180;53168;51.146;17.120;2023-07-08T14:52:28;100569.80;;;42.30
66372;BMP180;53168;51.146;17.120;2023-07-08T14:55:03;100569.00;;;42.22
66372;BMP180;53168;51.146;17.120;2023-07-08T14:57:46;100571.20;;;42.10
66372;BMP180;53168;51.146;17.120;2023-07-08T15:00:22;100570.00;;;41.80
66372;BMP180;53168;51.146;17.120;2023-07-08T15:02:58;100564.40;;;41.90
66372;BMP180;53168;51.146;17.120;2023-07-08T15:05:32;100561.80;;;42.00
66372;BMP180;53168;51.146;17.120;2023-07-08T15:08:08;100565.80;;;42.00
66372;BMP180;53168;51.146;17.120;2023-07-08T15:10:50;100572.20;;;41.80
66372;BMP180;53168;51.146;17.120;2023-07-08T15:13:31;100577.80;;;41.26
66372;BMP180;53168;51.146;17.120;2023-07-08T15:16:07;100587.20;;;40.54
66372;BMP180;53168;51.146;17.120;2023-07-08T15:18:45;100592.40;;;39.62
66372;BMP180;53168;51.146;17.120;2023-07-08T15:21:21;100585.80;;;38.84